sensor_id;sensor_type;location;lat;lon;timestamp;pressure;altitude;pressure_sealevel;temperature;humidity
76024;BME280;64719;52.124;6.226;2023-07-31T00:00:12;101142.00;;;14.83;100.00
76024;BME280;64719;52.124;6.226;2023-07-31T00:02:38;101149.56;;;14.76;100.00
76024;BME280;64719;52.124;6.226;2023-07-31T00:05:05;101150.72;;;14.80;100.00
76024;BME280;64719;52.124;6.226;2023-07-31T00:07:32;101142.50;;;14.80;100.00
76024;BME280;64719;52.124;6.226;2023-07-31T00:09:58;101146.22;;;14.91;100.00
76024;BME280;64719;52.124;6.226;2023-07-31T00:12:26;101140.38;;;14.82;100.00
76024;BME280;64719;52.124;6.226;2023-07-31T00:14:53;101150.28;;;14.88;100.00
76024;BME280;64719;52.124;6.226;2023-07-31T00:17:20;101143.44;;;14.86;100.00
76024;BME280;64719;52.124;6.226;2023-07-31T00:19:46;101144.50;;;14.85;100.00
76024;BME280;64719;52.124;6.226;2023-07-31T00:22:15;101130.03;;;14.84;100.00
76024;BME280;64719;52.124;6.226;2023-07-31T00:24:42;101125.69;;;14.88;100.00
76024;BME280;64719;52.124;6.226;2023-07-31T00:27:08;101122.88;;;14.83;100.00
76024;BME280;64719;52.124;6.226;2023-07-31T00:29:36;101124.59;;;14.89;100.00
76024;BME280;64719;52.124;6.226;2023-07-31T00:32:04;101110.94;;;14.89;100.00
76024;BME280;64719;52.124;6.226;2023-07-31T00:34:30;101103.91;;;14.93;100.00
76024;BME280;64719;52.124;6.226;2023-07-31T00:36:57;101100.94;;;14.95;100.00
76024;BME280;64719;52.124;6.226;2023-07-31T00:39:23;101105.81;;;14.93;100.00
76024;BME280;64719;52.124;6.226;2023-07-31T00:41:50;101099.00;;;14.95;100.00
76024;BME280;64719;52.124;6.226;2023-07-31T00:44:17;101102.13;;;15.04;100.00
76024;BME280;64719;52.124;6.226;2023-07-31T00:46:44;101093.59;;;15.00;100.00
76024;BME280;64719;52.124;6.226;2023-07-31T00:49:12;101087.31;;;15.00;100.00
76024;BME280;64719;52.124;6.226;2023-07-31T00:51:39;101087.13;;;15.06;100.00
76024;BME280;64719;52.124;6.226;2023-07-31T00:54:06;101096.41;;;15.05;100.00
76024;BME280;64719;52.124;6.226;2023-07-31T00:56:33;101093.44;;;15.07;100.00
76024;BME280;64719;52.124;6.226;2023-07-31T00:58:59;101094.31;;;15.12;100.00
76024;BME280;64719;52.124;6.226;2023-07-31T01:01:27;101090.09;;;15.05;100.00
76024;BME280;64719;52.124;6.226;2023-07-31T01:03:55;101085.22;;;15.07;100.00
76024;BME280;64719;52.124;6.226;2023-07-31T01:06:30;101074.59;;;15.10;100.00
76024;BME280;64719;52.124;6.226;2023-07-31T01:09:03;101084.31;;;15.23;100.00
76024;BME280;64719;52.124;6.226;2023-07-31T01:11:30;101084.81;;;15.20;100.00
76024;BME280;64719;52.124;6.226;2023-07-31T01:13:58;101079.03;;;15.16;100.00
76024;BME280;64719;52.124;6.226;2023-07-31T01:16:25;101079.41;;;15.25;100.00
76024;BME280;64719;52.124;6.226;2023-07-31T01:18:51;101075.41;;;15.32;100.00
76024;BME280;64719;52.124;6.226;2023-07-31T01:21:34;101059.78;;;15.28;100.00
76024;BME280;64719;52.124;6.226;2023-07-31T01:24:33;101062.25;;;15.29;100.00
76024;BME280;64719;52.124;6.226;2023-07-31T01:27:06;101058.22;;;15.37;100.00
76024;BME280;64719;52.124;6.226;2023-07-31T01:29:39;101056.38;;;15.42;100.00
76024;BME280;64719;52.124;6.226;2023-07-31T01:32:11;101053.19;;;15.50;100.00
76024;BME280;64719;52.124;6.226;2023-07-31T01:34:39;101045.56;;;15.52;100.00
76024;BME280;64719;52.124;6.226;2023-07-31T01:37:07;101056.00;;;15.60;100.00
76024;BME280;64719;52.124;6.226;2023-07-31T01:39:34;101044.78;;;15.57;100.00
76024;BME280;64719;52.124;6.226;2023-07-31T01:42:00;101043.78;;;15.68;100.00
76024;BME280;64719;52.124;6.226;2023-07-31T01:44:28;101040.56;;;15.76;100.00
76024;BME280;64719;52.124;6.226;2023-07-31T01:46:56;101044.47;;;15.85;100.00
76024;BME280;64719;52.124;6.226;2023-07-31T01:49:24;101050.53;;;15.92;100.00
76024;BME280;64719;52.124;6.226;2023-07-31T01:51:50;101036.06;;;15.96;100.00
76024;BME280;64719;52.124;6.226;2023-07-31T01:54:17;101027.91;;;16.01;100.00
76024;BME280;64719;52.124;6.226;2023-07-31T01:56:44;101025.75;;;16.03;100.00
76024;BME280;64719;52.124;6.226;2023-07-31T01:59:10;101027.72;;;16.13;100.00
76024;BME280;64719;52.124;6.226;2023-07-31T02:01:39;101027.75;;;16.18;100.00
76024;BME280;64719;52.124;6.226;2023-07-31T02:04:06;101021.47;;;16.22;100.00
76024;BME280;64719;52.124;6.226;2023-07-31T02:06:33;101027.25;;;16.26;100.00
76024;BME280;64719;52.124;6.226;2023-07-31T02:08:59;101022.91;;;16.30;100.00
76024;BME280;64719;52.124;6.226;2023-07-31T02:11:26;101016.03;;;16.27;100.00
76024;BME280;64719;52.124;6.226;2023-07-31T02:13:52;101017.41;;;16.30;100.00
76024;BME280;64719;52.124;6.226;2023-07-31T02:16:19;101018.78;;;16.32;100.00
76024;BME280;64719;52.124;6.226;2023-07-31T02:18:47;101006.19;;;16.31;100.00
76024;BME280;64719;52.124;6.226;2023-07-31T02:21:14;101002.88;;;16.29;100.00
76024;BME280;64719;52.124;6.226;2023-07-31T02:23:40;101010.84;;;16.31;100.00
76024;BME280;64719;52.124;6.226;2023-07-31T02:26:07;101002.63;;;16.31;100.00
76024;BME280;64719;52.124;6.226;2023-07-31T02:28:33;101006.16;;;16.26;100.00
76024;BME280;64719;52.124;6.226;2023-07-31T02:31:00;101003.16;;;16.28;100.00
76024;BME280;64719;52.124;6.226;2023-07-31T02:33:27;100994.66;;;16.29;100.00
76024;BME280;64719;52.124;6.226;2023-07-31T02:35:54;101003.41;;;16.26;100.00
76024;BME280;64719;52.124;6.226;2023-07-31T02:38:21;100994.41;;;16.26;100.00
76024;BME280;64719;52.124;6.226;2023-07-31T02:40:48;100997.69;;;16.28;100.00
76024;BME280;64719;52.124;6.226;2023-07-31T02:43:14;100997.16;;;16.31;100.00
76024;BME280;64719;52.124;6.226;2023-07-31T02:45:41;100993.31;;;16.27;100.00
76024;BME280;64719;52.124;6.226;2023-07-31T02:48:07;100988.63;;;16.22;100.00
76024;BME280;64719;52.124;6.226;2023-07-31T02:50:34;101003.69;;;16.20;100.00
76024;BME280;64719;52.124;6.226;2023-07-31T02:53:02;101000.16;;;16.24;100.00
76024;BME280;64719;52.124;6.226;2023-07-31T02:55:29;101002.88;;;16.24;100.00
76024;BME280;64719;52.124;6.226;2023-07-31T02:57:55;101006.09;;;16.16;100.00
76024;BME280;64719;52.124;6.226;2023-07-31T03:00:23;101004.22;;;16.17;100.00
76024;BME280;64719;52.124;6.226;2023-07-31T03:02:50;100995.16;;;16.16;100.00
76024;BME280;64719;52.124;6.226;2023-07-31T03:05:16;101006.69;;;16.18;100.00
76024;BME280;64719;52.124;6.226;2023-07-31T03:07:43;100998.19;;;16.20;100.00
76024;BME280;64719;52.124;6.226;2023-07-31T03:10:11;101000.09;;;16.19;100.00
76024;BME280;64719;52.124;6.226;2023-07-31T03:12:37;100994.63;;;16.19;100.00
76024;BME280;64719;52.124;6.226;2023-07-31T03:15:05;100996.53;;;16.19;100.00
76024;BME280;64719;52.124;6.226;2023-07-31T03:17:31;100988.84;;;16.16;100.00
76024;BME280;64719;52.124;6.226;2023-07-31T03:19:58;100996.53;;;16.19;100.00
76024;BME280;64719;52.124;6.226;2023-07-31T03:22:25;100999.84;;;16.21;100.00
76024;BME280;64719;52.124;6.226;2023-07-31T03:24:51;100987.78;;;16.22;100.00
76024;BME280;64719;52.124;6.226;2023-07-31T03:27:19;100989.47;;;16.23;100.00
76024;BME280;64719;52.124;6.226;2023-07-31T03:29:46;100991.09;;;16.24;100.00
76024;BME280;64719;52.124;6.226;2023-07-31T03:32:15;100998.47;;;16.23;100.00
76024;BME280;64719;52.124;6.226;2023-07-31T03:34:41;101000.94;;;16.25;100.00
76024;BME280;64719;52.124;6.226;2023-07-31T03:37:08;100994.66;;;16.24;100.00
76024;BME280;64719;52.124;6.226;2023-07-31T03:39:35;101000.69;;;16.26;100.00
76024;BME280;64719;52.124;6.226;2023-07-31T03:42:01;100990.03;;;16.30;100.00
76024;BME280;64719;52.124;6.226;2023-07-31T03:44:29;100988.66;;;16.32;100.00
76024;BME280;64719;52.124;6.226;2023-07-31T03:46:56;100981.56;;;16.31;100.00
76024;BME280;64719;52.124;6.226;2023-07-31T03:49:23;100996.88;;;16.32;100.00
76024;BME280;64719;52.124;6.226;2023-07-31T03:51:49;100985.94;;;16.32;100.00
76024;BME280;64719;52.124;6.226;2023-07-31T03:54:16;100970.88;;;16.30;100.00
76024;BME280;64719;52.124;6.226;2023-07-31T03:56:42;100981.28;;;16.33;100.00
76024;BME280;64719;52.124;6.226;2023-07-31T03:59:09;100983.44;;;16.31;100.00
76024;BME280;64719;52.124;6.226;2023-07-31T04:01:37;100977.44;;;16.29;100.00
76024;BME280;64719;52.124;6.226;2023-07-31T04:04:04;100970.03;;;16.29;100.00
76024;BME280;64719;52.124;6.226;2023-07-31T04:06:30;100974.44;;;16.30;100.00
76024;BME280;64719;52.124;6.226;2023-07-31T04:08:57;100981.25;;;16.28;100.00
76024;BME280;64719;52.124;6.226;2023-07-31T04:11:23;100976.03;;;16.26;100.00
76024;BME280;64719;52.124;6.226;2023-07-31T04:13:50;100982.91;;;16.29;100.00
76024;BME280;64719;52.124;6.226;2023-07-31T04:16:17;100981.78;;;16.25;100.00
76024;BME280;64719;52.124;6.226;2023-07-31T04:18:45;100979.59;;;16.27;100.00
76024;BME280;64719;52.124;6.226;2023-07-31T04:21:14;100980.44;;;16.27;100.00
76024;BME280;64719;52.124;6.226;2023-07-31T04:23:41;100969.44;;;16.22;100.00
76024;BME280;64719;52.124;6.226;2023-07-31T04:26:07;100966.75;;;16.27;100.00
76024;BME280;64719;52.124;6.226;2023-07-31T04:28:34;100969.19;;;16.24;100.00
76024;BME280;64719;52.124;6.226;2023-07-31T04:31:00;100967.81;;;16.21;100.00
76024;BME280;64719;52.124;6.226;2023-07-31T04:33:27;100958.47;;;16.17;100.00
76024;BME280;64719;52.124;6.226;2023-07-31T04:35:55;100970.81;;;16.20;100.00
76024;BME280;64719;52.124;6.226;2023-07-31T04:38:22;100969.72;;;16.21;100.00
76024;BME280;64719;52.124;6.226;2023-07-31T04:40:49;100964.53;;;16.24;100.00
76024;BME280;64719;52.124;6.226;2023-07-31T04:43:15;100960.13;;;16.23;100.00
76024;BME280;64719;52.124;6.226;2023-07-31T04:45:44;100954.66;;;16.23;100.00
76024;BME280;64719;52.124;6.226;2023-07-31T04:48:12;100961.25;;;16.22;100.00
76024;BME280;64719;52.124;6.226;2023-07-31T04:50:38;100964.47;;;16.14;100.00
76024;BME280;64719;52.124;6.226;2023-07-31T04:53:06;100952.16;;;16.12;100.00
76024;BME280;64719;52.124;6.226;2023-07-31T04:55:33;100949.41;;;16.12;100.00
76024;BME280;64719;52.124;6.226;2023-07-31T04:58:00;100956.53;;;16.13;100.00
76024;BME280;64719;52.124;6.226;2023-07-31T05:00:25;100943.94;;;16.12;100.00
76024;BME280;64719;52.124;6.226;2023-07-31T05:02:52;100942.56;;;16.14;100.00
76024;BME280;64719;52.124;6.226;2023-07-31T05:05:18;100949.09;;;16.08;100.00
76024;BME280;64719;52.124;6.226;2023-07-31T05:07:45;100945.59;;;16.18;100.00
76024;BME280;64719;52.124;6.226;2023-07-31T05:10:13;100945.63;;;16.23;100.00
76024;BME280;64719;52.124;6.226;2023-07-31T05:12:39;100932.22;;;16.26;100.00
76024;BME280;64719;52.124;6.226;2023-07-31T05:15:07;100945.94;;;16.31;100.00
76024;BME280;64719;52.124;6.226;2023-07-31T05:17:33;100939.91;;;16.24;100.00
76024;BME280;64719;52.124;6.226;2023-07-31T05:20:00;100940.72;;;16.30;100.00
76024;BME280;64719;52.124;6.226;2023-07-31T05:22:27;100939.94;;;16.34;100.00
76024;BME280;64719;52.124;6.226;2023-07-31T05:24:53;100934.19;;;16.36;100.00
76024;BME280;64719;52.124;6.226;2023-07-31T05:27:21;100927.91;;;16.40;100.00
76024;BME280;64719;52.124;6.226;2023-07-31T05:29:48;100926.53;;;16.43;100.00
76024;BME280;64719;52.124;6.226;2023-07-31T05:32:15;100924.66;;;16.43;100.00
76024;BME280;64719;52.124;6.226;2023-07-31T05:34:41;100916.38;;;16.38;100.00
76024;BME280;64719;52.124;6.226;2023-07-31T05:37:09;100927.41;;;16.43;100.00
76024;BME280;64719;52.124;6.226;2023-07-31T05:39:36;100914.53;;;16.44;100.00
76024;BME280;64719;52.124;6.226;2023-07-31T05:42:03;100918.66;;;16.47;100.00
76024;BME280;64719;52.124;6.226;2023-07-31T05:44:31;100917.78;;;16.41;100.00
76024;BME280;64719;52.124;6.226;2023-07-31T05:46:58;100930.91;;;16.39;100.00
76024;BME280;64719;52.124;6.226;2023-07-31T05:49:24;100928.72;;;16.36;100.00
76024;BME280;64719;52.124;6.226;2023-07-31T05:51:51;100920.72;;;16.29;100.00
76024;BME280;64719;52.124;6.226;2023-07-31T05:54:17;100920.16;;;16.22;100.00
76024;BME280;64719;52.124;6.226;2023-07-31T05:56:44;100919.31;;;16.17;100.00
76024;BME280;64719;52.124;6.226;2023-07-31T05:59:12;100915.72;;;16.11;100.00
76024;BME280;64719;52.124;6.226;2023-07-31T06:01:40;100914.09;;;16.10;100.00
76024;BME280;64719;52.124;6.226;2023-07-31T06:04:07;100915.44;;;16.08;100.00
76024;BME280;64719;52.124;6.226;2023-07-31T06:06:34;100911.56;;;16.04;100.00
76024;BME280;64719;52.124;6.226;2023-07-31T06:09:00;100917.91;;;16.09;100.00
76024;BME280;64719;52.124;6.226;2023-07-31T06:11:28;100912.44;;;16.09;100.00
76024;BME280;64719;52.124;6.226;2023-07-31T06:13:55;100915.16;;;16.04;100.00
76024;BME280;64719;52.124;6.226;2023-07-31T06:16:23;100904.72;;;16.01;100.00
76024;BME280;64719;52.124;6.226;2023-07-31T06:18:50;100899.56;;;16.05;100.00
76024;BME280;64719;52.124;6.226;2023-07-31T06:21:17;100895.41;;;16.02;100.00
76024;BME280;64719;52.124;6.226;2023-07-31T06:23:44;100898.75;;;16.09;100.00
76024;BME280;64719;52.124;6.226;2023-07-31T06:26:10;100905.34;;;16.13;100.00
76024;BME280;64719;52.124;6.226;2023-07-31T06:28:37;100909.72;;;16.14;100.00
76024;BME280;64719;52.124;6.226;2023-07-31T06:31:03;100904.84;;;16.21;100.00
76024;BME280;64719;52.124;6.226;2023-07-31T06:33:30;100901.81;;;16.23;100.00
76024;BME280;64719;52.124;6.226;2023-07-31T06:35:58;100899.34;;;16.21;100.00
76024;BME280;64719;52.124;6.226;2023-07-31T06:38:26;100887.34;;;16.27;100.00
76024;BME280;64719;52.124;6.226;2023-07-31T06:40:52;100898.34;;;16.42;100.00
76024;BME280;64719;52.124;6.226;2023-07-31T06:43:19;100895.97;;;16.66;100.00
76024;BME280;64719;52.124;6.226;2023-07-31T06:45:46;100886.41;;;16.74;100.00
76024;BME280;64719;52.124;6.226;2023-07-31T06:48:15;100883.41;;;16.90;100.00
76024;BME280;64719;52.124;6.226;2023-07-31T06:50:41;100864.25;;;16.85;100.00
76024;BME280;64719;52.124;6.226;2023-07-31T06:53:10;100871.09;;;16.93;100.00
76024;BME280;64719;52.124;6.226;2023-07-31T06:55:36;100875.75;;;16.92;100.00
76024;BME280;64719;52.124;6.226;2023-07-31T06:58:03;100877.94;;;16.95;100.00
76024;BME280;64719;52.124;6.226;2023-07-31T07:00:30;100865.06;;;16.96;100.00
76024;BME280;64719;52.124;6.226;2023-07-31T07:02:57;100863.13;;;16.96;100.00
76024;BME280;64719;52.124;6.226;2023-07-31T07:05:24;100868.34;;;16.93;100.00
76024;BME280;64719;52.124;6.226;2023-07-31T07:07:51;100864.22;;;17.05;100.00
76024;BME280;64719;52.124;6.226;2023-07-31T07:10:19;100848.31;;;17.17;100.00
76024;BME280;64719;52.124;6.226;2023-07-31T07:12:46;100861.22;;;17.12;100.00
76024;BME280;64719;52.124;6.226;2023-07-31T07:15:12;100860.13;;;17.18;100.00
76024;BME280;64719;52.124;6.226;2023-07-31T07:17:39;100851.63;;;17.19;100.00
76024;BME280;64719;52.124;6.226;2023-07-31T07:20:07;100856.00;;;17.05;100.00
76024;BME280;64719;52.124;6.226;2023-07-31T07:22:34;100865.59;;;17.03;100.00
76024;BME280;64719;52.124;6.226;2023-07-31T07:25:00;100861.22;;;17.12;100.00
76024;BME280;64719;52.124;6.226;2023-07-31T07:27:28;100850.25;;;17.22;100.00
76024;BME280;64719;52.124;6.226;2023-07-31T07:29:55;100855.44;;;17.23;100.00
76024;BME280;64719;52.124;6.226;2023-07-31T07:32:22;100843.94;;;17.16;100.00
76024;BME280;64719;52.124;6.226;2023-07-31T07:34:48;100849.16;;;17.23;100.00
76024;BME280;64719;52.124;6.226;2023-07-31T07:37:15;100844.75;;;17.37;100.00
76024;BME280;64719;52.124;6.226;2023-07-31T07:39:42;100842.25;;;17.70;100.00
76024;BME280;64719;52.124;6.226;2023-07-31T07:42:09;100834.25;;;17.89;100.00
76024;BME280;64719;52.124;6.226;2023-07-31T07:44:37;100829.25;;;18.06;100.00
76024;BME280;64719;52.124;6.226;2023-07-31T07:47:03;100841.34;;;17.95;100.00
76024;BME280;64719;52.124;6.226;2023-07-31T07:49:31;100833.16;;;17.80;100.00
76024;BME280;64719;52.124;6.226;2023-07-31T07:51:57;100828.19;;;17.82;100.00
76024;BME280;64719;52.124;6.226;2023-07-31T07:54:24;100826.56;;;17.86;100.00
76024;BME280;64719;52.124;6.226;2023-07-31T07:56:51;100835.34;;;17.83;100.00
76024;BME280;64719;52.124;6.226;2023-07-31T07:59:17;100830.16;;;17.81;100.00
76024;BME280;64719;52.124;6.226;2023-07-31T08:01:45;100829.88;;;17.78;100.00
76024;BME280;64719;52.124;6.226;2023-07-31T08:04:12;100833.50;;;17.58;100.00
76024;BME280;64719;52.124;6.226;2023-07-31T08:06:38;100825.25;;;17.53;100.00
76024;BME280;64719;52.124;6.226;2023-07-31T08:09:05;100821.97;;;17.61;100.00
76024;BME280;64719;52.124;6.226;2023-07-31T08:11:32;100820.88;;;17.52;100.00
76024;BME280;64719;52.124;6.226;2023-07-31T08:13:58;100820.59;;;17.59;100.00
76024;BME280;64719;52.124;6.226;2023-07-31T08:16:25;100815.91;;;17.69;100.00
76024;BME280;64719;52.124;6.226;2023-07-31T08:18:53;100824.09;;;17.84;100.00
76024;BME280;64719;52.124;6.226;2023-07-31T08:21:19;100818.34;;;17.76;100.00
76024;BME280;64719;52.124;6.226;2023-07-31T08:23:46;100820.81;;;17.82;100.00
76024;BME280;64719;52.124;6.226;2023-07-31T08:26:15;100811.72;;;17.87;100.00
76024;BME280;64719;52.124;6.226;2023-07-31T08:28:41;100821.31;;;17.94;100.00
76024;BME280;64719;52.124;6.226;2023-07-31T08:31:08;100807.56;;;17.94;100.00
76024;BME280;64719;52.124;6.226;2023-07-31T08:33:34;100801.28;;;17.89;100.00
76024;BME280;64719;52.124;6.226;2023-07-31T08:36:03;100803.53;;;18.31;100.00
76024;BME280;64719;52.124;6.226;2023-07-31T08:38:30;100798.97;;;18.16;100.00
76024;BME280;64719;52.124;6.226;2023-07-31T08:40:56;100798.41;;;18.14;100.00
76024;BME280;64719;52.124;6.226;2023-07-31T08:43:25;100791.22;;;18.23;100.00
76024;BME280;64719;52.124;6.226;2023-07-31T08:45:52;100796.09;;;18.41;100.00
76024;BME280;64719;52.124;6.226;2023-07-31T08:48:19;100799.25;;;18.14;100.00
76024;BME280;64719;52.124;6.226;2023-07-31T08:50:45;100801.72;;;18.16;100.00
76024;BME280;64719;52.124;6.226;2023-07-31T08:53:13;100798.75;;;18.07;100.00
76024;BME280;64719;52.124;6.226;2023-07-31T08:55:40;100800.84;;;18.26;100.00
76024;BME280;64719;52.124;6.226;2023-07-31T08:58:06;100793.69;;;18.24;100.00
76024;BME280;64719;52.124;6.226;2023-07-31T09:00:33;100788.44;;;18.33;100.00
76024;BME280;64719;52.124;6.226;2023-07-31T09:03:03;100793.69;;;18.73;100.00
76024;BME280;64719;52.124;6.226;2023-07-31T09:05:36;100787.06;;;18.74;100.00
76024;BME280;64719;52.124;6.226;2023-07-31T09:08:05;100784.44;;;18.93;100.00
76024;BME280;64719;52.124;6.226;2023-07-31T09:10:35;100793.28;;;18.90;100.00
76024;BME280;64719;52.124;6.226;2023-07-31T09:13:02;100789.38;;;18.96;100.00
76024;BME280;64719;52.124;6.226;2023-07-31T09:15:29;100785.31;;;18.88;100.00
76024;BME280;64719;52.124;6.226;2023-07-31T09:17:59;100789.81;;;18.74;100.00
76024;BME280;64719;52.124;6.226;2023-07-31T09:20:26;100784.66;;;18.68;100.00
76024;BME280;64719;52.124;6.226;2023-07-31T09:22:53;100795.56;;;18.34;100.00
76024;BME280;64719;52.124;6.226;2023-07-31T09:25:22;100789.81;;;18.41;100.00
76024;BME280;64719;52.124;6.226;2023-07-31T09:27:52;100788.88;;;18.50;100.00
76024;BME280;64719;52.124;6.226;2023-07-31T09:30:20;100778.34;;;18.67;100.00
76024;BME280;64719;52.124;6.226;2023-07-31T09:32:48;100783.09;;;18.52;100.00
76024;BME280;64719;52.124;6.226;2023-07-31T09:35:20;100783.72;;;18.44;100.00
76024;BME280;64719;52.124;6.226;2023-07-31T09:37:51;100786.13;;;18.55;100.00
76024;BME280;64719;52.124;6.226;2023-07-31T09:40:29;100775.22;;;18.45;100.00
76024;BME280;64719;52.124;6.226;2023-07-31T09:42:58;100781.16;;;18.57;100.00
76024;BME280;64719;52.124;6.226;2023-07-31T09:45:26;100777.63;;;19.19;100.00
76024;BME280;64719;52.124;6.226;2023-07-31T09:47:53;100777.59;;;18.90;100.00
76024;BME280;64719;52.124;6.226;2023-07-31T09:50:21;100767.03;;;18.74;100.00
76024;BME280;64719;52.124;6.226;2023-07-31T09:52:48;100768.72;;;18.98;100.00
76024;BME280;64719;52.124;6.226;2023-07-31T09:55:15;100763.63;;;18.82;100.00
76024;BME280;64719;52.124;6.226;2023-07-31T09:57:46;100766.91;;;18.50;100.00
76024;BME280;64719;52.124;6.226;2023-07-31T10:00:16;100767.41;;;18.57;100.00
76024;BME280;64719;52.124;6.226;2023-07-31T10:02:45;100772.13;;;18.52;100.00
76024;BME280;64719;52.124;6.226;2023-07-31T10:05:13;100770.19;;;18.52;100.00
76024;BME280;64719;52.124;6.226;2023-07-31T10:07:41;100765.06;;;18.41;100.00
76024;BME280;64719;52.124;6.226;2023-07-31T10:10:09;100773.38;;;18.26;100.00
76024;BME280;64719;52.124;6.226;2023-07-31T10:12:36;100775.84;;;18.27;100.00
76024;BME280;64719;52.124;6.226;2023-07-31T10:15:03;100779.38;;;18.33;100.00
76024;BME280;64719;52.124;6.226;2023-07-31T10:17:31;100777.22;;;18.24;100.00
76024;BME280;64719;52.124;6.226;2023-07-31T10:19:58;100775.50;;;18.39;100.00
76024;BME280;64719;52.124;6.226;2023-07-31T10:22:27;100769.06;;;18.58;100.00
76024;BME280;64719;52.124;6.226;2023-07-31T10:24:55;100770.25;;;18.81;100.00
76024;BME280;64719;52.124;6.226;2023-07-31T10:27:23;100762.41;;;18.64;100.00
76024;BME280;64719;52.124;6.226;2023-07-31T10:29:52;100765.00;;;18.46;100.00
76024;BME280;64719;52.124;6.226;2023-07-31T10:32:20;100772.34;;;18.60;100.00
76024;BME280;64719;52.124;6.226;2023-07-31T10:34:49;100770.97;;;18.91;100.00
76024;BME280;64719;52.124;6.226;2023-07-31T10:37:20;100761.53;;;19.02;100.00
76024;BME280;64719;52.124;6.226;2023-07-31T10:39:58;100761.84;;;19.01;100.00
76024;BME280;64719;52.124;6.226;2023-07-31T10:42:30;100757.94;;;18.73;100.00
76024;BME280;64719;52.124;6.226;2023-07-31T10:44:58;100767.16;;;18.54;100.00
76024;BME280;64719;52.124;6.226;2023-07-31T10:47:25;100775.00;;;18.70;100.00
76024;BME280;64719;52.124;6.226;2023-07-31T10:50:11;100765.03;;;18.79;100.00
76024;BME280;64719;52.124;6.226;2023-07-31T10:52:37;100765.47;;;18.91;100.00
76024;BME280;64719;52.124;6.226;2023-07-31T10:55:14;100769.94;;;18.87;100.00
76024;BME280;64719;52.124;6.226;2023-07-31T10:57:44;100755.50;;;19.00;100.00
76024;BME280;64719;52.124;6.226;2023-07-31T11:00:19;100767.53;;;18.76;100.00
76024;BME280;64719;52.124;6.226;2023-07-31T11:02:56;100751.69;;;18.96;100.00
76024;BME280;64719;52.124;6.226;2023-07-31T11:05:40;100750.81;;;19.34;100.00
76024;BME280;64719;52.124;6.226;2023-07-31T11:08:11;100748.34;;;19.33;100.00
76024;BME280;64719;52.124;6.226;2023-07-31T11:10:37;100749.97;;;19.34;100.00
76024;BME280;64719;52.124;6.226;2023-07-31T11:13:04;100749.22;;;19.52;100.00
76024;BME280;64719;52.124;6.226;2023-07-31T11:15:31;100749.56;;;19.45;100.00
76024;BME280;64719;52.124;6.226;2023-07-31T11:17:57;100739.34;;;19.69;100.00
76024;BME280;64719;52.124;6.226;2023-07-31T11:20:25;100737.59;;;20.39;100.00
76024;BME280;64719;52.124;6.226;2023-07-31T11:22:51;100724.47;;;21.00;100.00
76024;BME280;64719;52.124;6.226;2023-07-31T11:25:18;100724.94;;;21.34;100.00
76024;BME280;64719;52.124;6.226;2023-07-31T11:27:45;100719.69;;;20.87;100.00
76024;BME280;64719;52.124;6.226;2023-07-31T11:30:12;100719.47;;;21.02;100.00
76024;BME280;64719;52.124;6.226;2023-07-31T11:32:38;100724.59;;;20.90;100.00
76024;BME280;64719;52.124;6.226;2023-07-31T11:35:05;100730.88;;;20.27;100.00
76024;BME280;64719;52.124;6.226;2023-07-31T11:37:41;100721.06;;;20.39;100.00
76024;BME280;64719;52.124;6.226;2023-07-31T11:40:09;100739.31;;;20.17;100.00
76024;BME280;64719;52.124;6.226;2023-07-31T11:42:36;100746.31;;;20.28;100.00
76024;BME280;64719;52.124;6.226;2023-07-31T11:45:03;100740.66;;;20.56;100.00
76024;BME280;64719;52.124;6.226;2023-07-31T11:47:32;100736.47;;;20.59;100.00
76024;BME280;64719;52.124;6.226;2023-07-31T11:49:59;100737.72;;;20.48;100.00
76024;BME280;64719;52.124;6.226;2023-07-31T11:52:27;100736.06;;;20.84;100.00
76024;BME280;64719;52.124;6.226;2023-07-31T11:54:57;100736.50;;;20.72;100.00
76024;BME280;64719;52.124;6.226;2023-07-31T11:57:25;100738.97;;;20.74;100.00
76024;BME280;64719;52.124;6.226;2023-07-31T11:59:52;100731.78;;;20.22;100.00
76024;BME280;64719;52.124;6.226;2023-07-31T12:02:19;100738.84;;;19.67;100.00
76024;BME280;64719;52.124;6.226;2023-07-31T12:04:46;100744.00;;;19.22;100.00
76024;BME280;64719;52.124;6.226;2023-07-31T12:07:13;100752.06;;;19.13;100.00
76024;BME280;64719;52.124;6.226;2023-07-31T12:09:50;100746.75;;;19.27;100.00
76024;BME280;64719;52.124;6.226;2023-07-31T12:12:21;100744.00;;;19.22;100.00
76024;BME280;64719;52.124;6.226;2023-07-31T12:14:48;100743.38;;;19.58;100.00
76024;BME280;64719;52.124;6.226;2023-07-31T12:17:17;100739.75;;;19.81;100.00
76024;BME280;64719;52.124;6.226;2023-07-31T12:19:44;100743.03;;;19.83;100.00
76024;BME280;64719;52.124;6.226;2023-07-31T12:22:11;100737.88;;;19.58;100.00
76024;BME280;64719;52.124;6.226;2023-07-31T12:24:39;100734.88;;;19.26;100.00
76024;BME280;64719;52.124;6.226;2023-07-31T12:27:09;100741.09;;;19.42;100.00
76024;BME280;64719;52.124;6.226;2023-07-31T12:29:37;100736.78;;;19.54;100.00
76024;BME280;64719;52.124;6.226;2023-07-31T12:32:05;100741.50;;;19.54;100.00
76024;BME280;64719;52.124;6.226;2023-07-31T12:34:44;100733.88;;;19.46;100.00
76024;BME280;64719;52.124;6.226;2023-07-31T12:37:10;100734.81;;;19.36;100.00
76024;BME280;64719;52.124;6.226;2023-07-31T12:39:37;100739.50;;;19.36;100.00
76024;BME280;64719;52.124;6.226;2023-07-31T12:42:04;100733.47;;;19.34;100.00